Time;durP1;ratioP1;P1;durP2;ratioP2;P2;SDS_P1;SDS_P2;PMS_P1;PMS_P2;Temp;Humidity;BMP_temperature;BMP_pressure;BME280_temperature;BME280_humidity;BME280_pressure;Samples;Min_cycle;Max_cycle;Signal;HPM_P1;HPM_P2
2022/03/11 00:00:45;;;;;;;10.65;7.35;;;13.90;48.90;;;;;;5077619;28;20471;-77
2022/03/11 00:03:12;;;;;;;9.52;7.03;;;14.00;49.10;;;;;;5077701;28;20053;-77
2022/03/11 00:05:39;;;;;;;9.32;6.70;;;13.90;49.20;;;;;;5077399;28;20053;-79
2022/03/11 00:08:06;;;;;;;9.00;6.72;;;14.00;49.20;;;;;;5077351;28;20052;-78
2022/03/11 00:10:32;;;;;;;9.02;7.00;;;13.90;48.30;;;;;;5059947;28;20105;-78
2022/03/11 00:12:58;;;;;;;9.73;6.40;;;13.90;48.90;;;;;;5077277;28;20056;-79
2022/03/11 00:15:24;;;;;;;8.60;6.30;;;13.90;49.10;;;;;;5076931;28;20055;-78
2022/03/11 00:17:51;;;;;;;9.45;7.07;;;13.90;49.30;;;;;;5076960;28;20044;-78
2022/03/11 00:20:20;;;;;;;9.20;7.00;;;13.80;48.90;;;;;;5077396;28;20098;-77
2022/03/11 00:22:47;;;;;;;8.70;7.07;;;13.80;48.20;;;;;;5077148;28;20052;-76
2022/03/11 00:25:13;;;;;;;8.07;6.53;;;13.80;49.00;;;;;;5059684;28;20056;-77
2022/03/11 00:27:40;;;;;;;10.77;7.45;;;13.70;48.80;;;;;;5077553;28;20130;-76
2022/03/11 00:30:06;;;;;;;7.90;6.68;;;13.70;49.30;;;;;;5058997;28;20045;-78
2022/03/11 00:32:32;;;;;;;9.48;7.18;;;13.70;49.00;;;;;;5077081;28;20048;-78
2022/03/11 00:34:58;;;;;;;8.57;6.78;;;13.80;49.50;;;;;;5059456;28;20060;-77
2022/03/11 00:37:23;;;;;;;9.23;6.55;;;13.80;49.30;;;;;;5077228;28;20052;-76
2022/03/11 00:39:49;;;;;;;8.80;6.47;;;13.80;49.20;;;;;;5058646;28;20136;-79
2022/03/11 00:42:15;;;;;;;8.30;6.82;;;13.80;49.10;;;;;;5076670;28;20052;-76
2022/03/11 00:44:40;;;;;;;11.35;7.97;;;13.70;48.70;;;;;;5077247;28;20431;-76
2022/03/11 00:47:07;;;;;;;10.27;7.20;;;13.70;48.80;;;;;;5076757;28;20051;-76
2022/03/11 00:49:33;;;;;;;9.20;7.47;;;13.60;47.90;;;;;;5076736;28;20456;-76
2022/03/11 00:51:59;;;;;;;10.93;6.65;;;13.60;48.70;;;;;;5076719;28;20056;-78
2022/03/11 00:54:25;;;;;;;8.63;6.63;;;13.60;48.80;;;;;;5058932;28;20055;-78
2022/03/11 00:56:51;;;;;;;12.13;6.97;;;13.60;49.20;;;;;;5076760;28;20109;-76
2022/03/11 00:59:17;;;;;;;7.88;6.97;;;13.70;49.20;;;;;;5058886;28;20057;-78
2022/03/11 01:01:43;;;;;;;11.43;7.65;;;13.60;48.70;;;;;;5058951;28;20088;-79
2022/03/11 01:04:08;;;;;;;10.32;7.90;;;13.70;49.10;;;;;;5076322;28;20040;-78
2022/03/11 01:06:34;;;;;;;7.95;6.78;;;13.70;48.70;;;;;;5058854;28;20091;-78
2022/03/11 01:09:00;;;;;;;9.55;7.13;;;13.70;48.90;;;;;;5076378;28;20051;-77
2022/03/11 01:11:26;;;;;;;9.35;7.47;;;13.60;48.80;;;;;;5076128;28;20036;-77
2022/03/11 01:13:51;;;;;;;9.80;7.50;;;13.60;48.90;;;;;;5076423;28;20063;-76
2022/03/11 01:16:17;;;;;;;8.65;6.95;;;13.60;48.60;;;;;;5076301;28;20352;-76
2022/03/11 01:18:43;;;;;;;10.23;7.25;;;13.60;49.10;;;;;;5056136;28;20047;-79
2022/03/11 01:21:10;;;;;;;8.35;7.07;;;13.40;47.70;;;;;;5058491;28;20058;-78
2022/03/11 01:23:35;;;;;;;10.32;7.30;;;13.50;48.80;;;;;;5076665;28;20094;-78
2022/03/11 01:26:01;;;;;;;8.80;7.28;;;13.50;49.10;;;;;;5076551;28;20071;-77
2022/03/11 01:28:27;;;;;;;9.15;7.38;;;13.50;48.80;;;;;;5075790;28;20040;-77
2022/03/11 01:30:52;;;;;;;9.52;7.78;;;13.50;48.80;;;;;;5076077;28;20352;-78
2022/03/11 01:33:18;;;;;;;8.35;7.07;;;13.50;49.00;;;;;;5075859;28;20049;-76
2022/03/11 01:35:46;;;;;;;9.48;7.55;;;13.50;48.90;;;;;;5075924;28;20091;-77
2022/03/11 01:38:12;;;;;;;9.82;7.15;;;13.40;48.70;;;;;;5058878;28;20055;-77
2022/03/11 01:40:38;;;;;;;11.45;7.15;;;13.50;49.00;;;;;;5075165;28;20052;-77
2022/03/11 01:43:03;;;;;;;8.20;7.05;;;13.50;48.90;;;;;;5067662;28;20519;-76
2022/03/11 01:45:29;;;;;;;12.23;6.75;;;13.50;48.90;;;;;;5056009;28;20128;-77
2022/03/11 01:47:55;;;;;;;8.73;7.25;;;13.50;48.80;;;;;;5037327;28;20468;-76
2022/03/11 01:50:21;;;;;;;9.75;7.75;;;13.50;48.90;;;;;;5055353;28;20052;-78
2022/03/11 01:52:46;;;;;;;10.57;7.13;;;13.40;48.60;;;;;;5047149;28;20098;-77
2022/03/11 01:55:14;;;;;;;9.05;7.38;;;13.40;48.70;;;;;;5056047;28;20415;-77
2022/03/11 01:57:39;;;;;;;9.07;7.53;;;13.40;48.80;;;;;;5089004;28;20048;-77
2022/03/11 02:00:07;;;;;;;9.75;7.60;;;13.40;48.90;;;;;;5081148;28;20051;-78
2022/03/11 02:02:33;;;;;;;8.77;7.05;;;13.50;49.00;;;;;;5058342;28;20049;-76
2022/03/11 02:04:59;;;;;;;8.00;6.88;;;13.50;48.90;;;;;;5075428;28;20499;-79
2022/03/11 02:07:26;;;;;;;9.38;7.05;;;13.50;48.70;;;;;;5075562;28;20048;-77
2022/03/11 02:09:53;;;;;;;10.65;7.47;;;13.50;48.90;;;;;;5066328;28;20052;-78
2022/03/11 02:12:34;;;;;;;9.82;6.88;;;13.50;48.80;;;;;;5055480;28;20045;-77
2022/03/11 02:15:05;;;;;;;8.68;6.93;;;13.50;48.80;;;;;;5055032;28;20052;-79
2022/03/11 02:17:30;;;;;;;10.13;6.80;;;13.50;48.80;;;;;;5055420;28;20045;-76
2022/03/11 02:19:56;;;;;;;8.40;6.68;;;13.50;48.70;;;;;;5055278;28;20052;-77
2022/03/11 02:22:23;;;;;;;9.52;7.20;;;13.50;48.30;;;;;;5054602;28;20546;-78
2022/03/11 02:24:53;;;;;;;11.15;8.13;;;13.40;48.50;;;;;;5054856;28;20136;-78
2022/03/11 02:27:19;;;;;;;7.50;6.70;;;13.40;48.00;;;;;;5054917;28;20048;-78
2022/03/11 02:29:45;;;;;;;8.52;6.90;;;13.30;48.60;;;;;;5054787;28;20479;-77
2022/03/11 02:32:11;;;;;;;10.52;6.95;;;13.30;48.70;;;;;;5055083;28;20095;-78
2022/03/11 02:34:38;;;;;;;8.20;6.45;;;13.40;48.70;;;;;;5055100;28;20052;-79
2022/03/11 02:37:05;;;;;;;8.57;6.68;;;13.30;48.30;;;;;;5054565;28;20543;-79
2022/03/11 02:39:30;;;;;;;8.63;6.15;;;13.30;48.60;;;;;;5055032;28;20053;-77
2022/03/11 02:41:57;;;;;;;9.95;6.28;;;13.40;48.80;;;;;;5054735;28;20476;-78
2022/03/11 02:44:24;;;;;;;9.52;6.88;;;13.30;48.70;;;;;;5055188;28;20072;-76
2022/03/11 02:46:50;;;;;;;9.45;6.43;;;13.30;48.70;;;;;;5037356;28;20120;-75
2022/03/11 02:49:16;;;;;;;9.68;6.75;;;13.30;48.00;;;;;;5054776;28;20529;-78
2022/03/11 02:51:41;;;;;;;9.25;6.43;;;13.30;48.80;;;;;;5055088;28;20048;-79
2022/03/11 02:54:07;;;;;;;12.57;6.95;;;13.30;48.80;;;;;;5054380;28;20414;-78
2022/03/11 02:56:33;;;;;;;7.30;6.18;;;13.20;48.10;;;;;;5037538;28;20056;-76
2022/03/11 02:58:58;;;;;;;8.35;6.20;;;13.20;48.80;;;;;;5039840;28;20437;-78
2022/03/11 03:01:24;;;;;;;7.15;5.68;;;13.30;48.70;;;;;;5058707;28;20037;-77
2022/03/11 03:03:50;;;;;;;8.95;5.55;;;13.30;48.80;;;;;;5058721;28;20136;-78
2022/03/11 03:06:15;;;;;;;9.82;6.00;;;13.20;48.60;;;;;;5041508;28;20056;-77
2022/03/11 03:08:41;;;;;;;7.22;6.25;;;13.20;48.70;;;;;;5040776;28;20063;-76
2022/03/11 03:11:07;;;;;;;8.35;6.07;;;13.20;48.70;;;;;;5075096;28;20122;-77
2022/03/11 03:13:33;;;;;;;9.30;5.75;;;13.20;48.60;;;;;;5061585;28;20048;-77
2022/03/11 03:15:58;;;;;;;8.65;5.82;;;13.00;48.30;;;;;;5078468;28;20045;-77
2022/03/11 03:18:24;;;;;;;8.40;5.95;;;12.90;48.60;;;;;;5078480;28;20098;-79
2022/03/11 03:20:50;;;;;;;9.77;6.13;;;13.00;49.10;;;;;;5078268;28;20478;-77
2022/03/11 03:23:16;;;;;;;7.57;5.47;;;13.00;49.00;;;;;;5078270;28;20079;-78
2022/03/11 03:25:42;;;;;;;7.40;5.78;;;13.10;49.10;;;;;;5060593;28;20044;-77
2022/03/11 03:28:08;;;;;;;7.90;6.47;;;13.00;49.00;;;;;;5078194;28;20098;-78
2022/03/11 03:30:34;;;;;;;8.15;5.82;;;13.00;48.80;;;;;;5060384;28;20048;-78
2022/03/11 03:33:00;;;;;;;7.90;6.53;;;13.10;48.80;;;;;;5078189;28;20056;-78
2022/03/11 03:35:26;;;;;;;9.10;6.18;;;13.00;48.70;;;;;;5077881;28;20101;-77
2022/03/11 03:37:52;;;;;;;11.73;5.68;;;13.00;48.80;;;;;;5060721;28;20059;-76
2022/03/11 03:40:17;;;;;;;7.78;5.95;;;12.90;48.90;;;;;;5040060;28;20194;-77
2022/03/11 03:42:47;;;;;;;7.35;6.03;;;12.90;49.00;;;;;;5057403;28;20107;-78
2022/03/11 03:45:13;;;;;;;7.72;5.50;;;12.90;49.10;;;;;;5057359;28;20114;-77
2022/03/11 03:47:38;;;;;;;8.85;6.45;;;12.90;49.10;;;;;;5057898;28;20444;-79
2022/03/11 03:50:04;;;;;;;7.43;5.47;;;12.90;48.90;;;;;;5059997;28;20050;-76
2022/03/11 03:52:30;;;;;;;7.47;5.70;;;12.90;48.60;;;;;;5077965;28;20056;-77
2022/03/11 03:54:56;;;;;;;7.50;5.55;;;12.90;48.70;;;;;;5077736;28;20044;-78
2022/03/11 03:57:22;;;;;;;8.45;6.00;;;12.90;49.10;;;;;;5060031;28;20058;-76
2022/03/11 03:59:48;;;;;;;7.32;5.90;;;12.90;49.20;;;;;;5077740;28;20387;-78
2022/03/11 04:02:13;;;;;;;6.97;5.63;;;12.90;49.10;;;;;;5077756;28;20127;-76
2022/03/11 04:04:39;;;;;;;8.38;6.32;;;12.80;49.20;;;;;;5077426;28;20060;-79
2022/03/11 04:07:05;;;;;;;8.85;6.15;;;12.80;49.00;;;;;;5077644;28;20052;-75
2022/03/11 04:09:30;;;;;;;8.98;5.75;;;12.80;49.20;;;;;;5076537;28;20076;-79
2022/03/11 04:11:56;;;;;;;9.90;6.63;;;12.80;49.20;;;;;;5059730;28;20045;-77
2022/03/11 04:14:22;;;;;;;7.85;5.97;;;12.80;49.40;;;;;;5077483;28;20052;-75
2022/03/11 04:16:48;;;;;;;8.30;6.53;;;12.80;49.40;;;;;;5077466;28;20040;-77
2022/03/11 04:19:14;;;;;;;8.20;5.88;;;12.80;49.40;;;;;;5059197;28;20056;-76
2022/03/11 04:21:40;;;;;;;10.90;7.07;;;12.80;49.20;;;;;;5077745;28;20048;-77
2022/03/11 04:24:12;;;;;;;8.73;6.40;;;12.80;49.20;;;;;;5077613;28;20478;-76
2022/03/11 04:26:40;;;;;;;9.30;6.40;;;12.70;48.90;;;;;;5077256;28;20048;-76
2022/03/11 04:29:06;;;;;;;10.07;6.80;;;12.80;49.40;;;;;;5077336;28;20044;-75
2022/03/11 04:31:32;;;;;;;10.43;6.72;;;12.70;49.40;;;;;;5076978;28;20131;-78
2022/03/11 04:33:57;;;;;;;9.55;6.38;;;12.80;49.40;;;;;;5076900;28;20132;-77
2022/03/11 04:36:23;;;;;;;10.02;6.93;;;12.80;49.40;;;;;;5059442;28;20044;-74
2022/03/11 04:38:49;;;;;;;12.18;7.43;;;12.80;49.30;;;;;;5077092;28;20056;-78
2022/03/11 04:41:14;;;;;;;8.90;6.22;;;12.70;49.10;;;;;;5076931;28;20422;-77
2022/03/11 04:43:42;;;;;;;10.60;7.45;;;12.60;49.00;;;;;;5059458;28;20045;-77
2022/03/11 04:46:08;;;;;;;10.32;6.95;;;12.60;49.40;;;;;;5076895;28;20133;-78
2022/03/11 04:48:36;;;;;;;9.07;6.65;;;12.60;49.60;;;;;;5059445;28;20048;-77
2022/03/11 04:51:02;;;;;;;10.43;7.35;;;12.60;49.40;;;;;;5076536;28;20084;-75
2022/03/11 04:53:28;;;;;;;9.73;6.50;;;12.60;49.30;;;;;;5059257;28;20471;-76
2022/03/11 04:55:54;;;;;;;8.07;6.47;;;12.60;49.50;;;;;;5076583;28;20075;-75
2022/03/11 04:58:20;;;;;;;10.52;7.03;;;12.50;49.20;;;;;;5076679;28;20044;-76
2022/03/11 05:00:45;;;;;;;10.45;7.18;;;12.40;49.20;;;;;;5076624;28;20379;-76
2022/03/11 05:03:11;;;;;;;9.57;6.93;;;12.50;49.40;;;;;;5076311;28;20434;-76
2022/03/11 05:05:37;;;;;;;11.98;7.75;;;12.40;49.70;;;;;;5059297;28;20048;-76
2022/03/11 05:08:03;;;;;;;9.63;7.18;;;12.50;49.80;;;;;;5076029;28;20040;-76
2022/03/11 05:10:28;;;;;;;9.45;7.20;;;12.50;49.70;;;;;;5076343;28;20194;-79
2022/03/11 05:12:54;;;;;;;8.23;7.38;;;12.50;49.80;;;;;;5075905;28;20044;-79
2022/03/11 05:15:21;;;;;;;10.95;7.18;;;12.50;49.80;;;;;;5076168;28;20448;-78
2022/03/11 05:17:47;;;;;;;11.25;7.82;;;12.60;49.70;;;;;;5075911;28;20337;-76
2022/03/11 05:20:12;;;;;;;8.80;6.70;;;12.50;49.40;;;;;;5075471;28;20055;-77
2022/03/11 05:22:41;;;;;;;11.43;8.32;;;12.50;49.80;;;;;;5074899;28;20048;-76
2022/03/11 05:25:08;;;;;;;9.88;7.55;;;12.50;49.60;;;;;;5058893;28;20052;-78
2022/03/11 05:27:34;;;;;;;10.77;7.35;;;12.40;49.60;;;;;;5076628;28;20406;-77
2022/03/11 05:30:00;;;;;;;11.73;8.35;;;12.40;49.70;;;;;;5074431;28;20040;-77
2022/03/11 05:32:25;;;;;;;10.93;7.07;;;12.40;49.80;;;;;;5074108;28;20051;-74
2022/03/11 05:34:53;;;;;;;12.90;9.50;;;12.40;50.10;;;;;;5058767;28;20059;-83
2022/03/11 05:37:19;;;;;;;14.93;10.43;;;12.40;49.50;;;;;;5041454;28;20083;-74
2022/03/11 05:39:45;;;;;;;14.98;10.63;;;12.40;48.10;;;;;;5075249;28;20433;-83
2022/03/11 05:42:13;;;;;;;16.27;11.50;;;12.30;47.00;;;;;;5058028;28;20048;-82
2022/03/11 05:44:39;;;;;;;14.57;10.95;;;12.20;47.20;;;;;;5075679;28;20114;-74
2022/03/11 05:47:05;;;;;;;16.75;10.73;;;12.20;47.50;;;;;;5075682;28;20044;-73
2022/03/11 05:49:32;;;;;;;15.45;10.10;;;12.20;48.20;;;;;;5058123;28;20091;-74
2022/03/11 05:51:57;;;;;;;17.05;12.02;;;12.30;50.20;;;;;;5075495;28;20044;-69
2022/03/11 05:54:23;;;;;;;16.80;11.82;;;12.40;52.90;;;;;;5058762;28;20067;-79
2022/03/11 05:56:54;;;;;;;12.80;9.75;;;12.50;55.00;;;;;;5059088;28;20040;-76
2022/03/11 05:59:21;;;;;;;13.02;9.35;;;12.60;52.80;;;;;;5059581;28;20112;-81
2022/03/11 06:01:47;;;;;;;14.43;8.95;;;12.80;52.10;;;;;;5057284;28;20072;-75
2022/03/11 06:04:13;;;;;;;10.15;8.02;;;13.10;51.30;;;;;;5075046;28;20036;-78
2022/03/11 06:06:41;;;;;;;11.70;7.63;;;13.40;50.90;;;;;;5041302;28;20056;-77
2022/03/11 06:09:08;;;;;;;9.80;6.60;;;13.70;50.70;;;;;;5040819;28;20421;-77
2022/03/11 06:11:35;;;;;;;14.13;7.82;;;14.00;50.60;;;;;;5075243;28;20098;-80
2022/03/11 06:14:01;;;;;;;10.23;6.45;;;14.30;50.60;;;;;;5072610;28;20091;-78
2022/03/11 06:16:27;;;;;;;8.48;6.68;;;14.50;51.20;;;;;;5055066;28;20056;-73
2022/03/11 06:18:53;;;;;;;9.82;6.57;;;14.70;51.30;;;;;;5054772;28;20063;-75
2022/03/11 06:21:18;;;;;;;11.93;6.97;;;14.80;51.90;;;;;;5046794;28;20048;-73
2022/03/11 06:23:44;;;;;;;8.45;5.85;;;15.00;51.00;;;;;;5068341;28;20052;-70
2022/03/11 06:26:13;;;;;;;11.10;5.63;;;15.10;52.40;;;;;;5056004;28;20380;-73
2022/03/11 06:28:39;;;;;;;9.15;6.00;;;15.20;52.30;;;;;;5059326;28;20040;-75
2022/03/11 06:31:04;;;;;;;11.35;5.25;;;15.20;52.40;;;;;;5069263;28;20117;-79
2022/03/11 06:33:30;;;;;;;11.90;6.50;;;15.30;52.90;;;;;;5076915;28;20168;-76
2022/03/11 06:35:56;;;;;;;12.02;5.32;;;15.30;53.30;;;;;;5058442;28;20426;-77
2022/03/11 06:38:21;;;;;;;10.02;4.95;;;15.40;54.00;;;;;;5075512;28;20050;-75
2022/03/11 06:40:49;;;;;;;12.65;5.00;;;15.50;54.50;;;;;;5074516;28;20095;-75
2022/03/11 06:43:16;;;;;;;9.55;5.13;;;15.50;54.90;;;;;;5075180;28;20202;-75
2022/03/11 06:45:42;;;;;;;11.38;5.30;;;15.60;55.10;;;;;;5062192;28;20128;-76
2022/03/11 06:48:08;;;;;;;9.85;5.85;;;15.60;55.30;;;;;;5069798;28;20048;-75
2022/03/11 06:50:33;;;;;;;10.20;5.63;;;15.60;55.60;;;;;;5071731;28;20056;-77
2022/03/11 06:52:59;;;;;;;8.10;5.10;;;15.70;55.50;;;;;;5067901;28;20131;-77
2022/03/11 06:55:25;;;;;;;14.63;5.53;;;15.70;55.30;;;;;;5036883;28;20122;-76
2022/03/11 06:57:50;;;;;;;15.55;5.88;;;15.80;55.40;;;;;;5055406;28;20033;-77
2022/03/11 07:00:19;;;;;;;12.82;4.82;;;15.80;55.60;;;;;;5071703;28;20480;-80
2022/03/11 07:02:45;;;;;;;12.02;5.45;;;15.90;55.30;;;;;;5055164;28;20130;-78
2022/03/11 07:05:11;;;;;;;12.98;5.38;;;16.00;55.10;;;;;;5047647;28;20132;-77
2022/03/11 07:07:37;;;;;;;11.52;5.43;;;16.10;54.30;;;;;;5042687;28;20052;-78
2022/03/11 07:10:09;;;;;;;11.38;6.13;;;16.20;54.30;;;;;;5053972;28;20041;-76
2022/03/11 07:12:38;;;;;;;12.82;6.20;;;16.20;53.80;;;;;;5020769;28;20044;-79
2022/03/11 07:15:06;;;;;;;15.38;6.22;;;16.30;53.30;;;;;;5054449;28;20033;-80
2022/03/11 07:17:32;;;;;;;17.13;6.97;;;16.40;52.30;;;;;;5067138;28;20120;-80
2022/03/11 07:19:58;;;;;;;13.68;5.75;;;16.50;52.10;;;;;;5056927;28;20049;-77
2022/03/11 07:22:25;;;;;;;16.17;5.95;;;16.50;51.90;;;;;;5050809;28;20049;-78
2022/03/11 07:24:50;;;;;;;14.02;7.10;;;16.60;52.00;;;;;;5059989;28;20121;-77
2022/03/11 07:27:16;;;;;;;17.98;8.70;;;16.60;51.80;;;;;;5065646;28;20049;-76
2022/03/11 07:29:42;;;;;;;17.73;9.50;;;16.60;50.60;;;;;;5036577;28;20036;-76
2022/03/11 07:32:10;;;;;;;17.67;9.90;;;16.70;48.80;;;;;;5053988;28;20431;-79
2022/03/11 07:34:36;;;;;;;18.83;10.00;;;16.70;47.80;;;;;;5054290;28;20045;-77
2022/03/11 07:37:11;;;;;;;16.60;8.98;;;16.80;46.50;;;;;;5060941;28;20055;-82
2022/03/11 07:39:39;;;;;;;17.85;9.25;;;16.70;46.20;;;;;;5056118;28;20056;-80
2022/03/11 07:42:05;;;;;;;18.83;8.82;;;16.80;46.00;;;;;;5052450;28;20045;-79
2022/03/11 07:44:33;;;;;;;12.65;8.00;;;16.90;45.60;;;;;;5054339;28;20055;-85
2022/03/11 07:46:59;;;;;;;13.82;8.32;;;17.00;45.60;;;;;;5057787;28;20056;-81
2022/03/11 07:49:25;;;;;;;13.77;8.25;;;17.10;45.80;;;;;;5039903;28;20037;-82
2022/03/11 07:51:50;;;;;;;10.90;7.97;;;17.20;45.90;;;;;;5039961;28;20037;-77
2022/03/11 07:54:16;;;;;;;11.52;7.72;;;17.30;45.80;;;;;;5044282;28;20072;-77
2022/03/11 07:56:42;;;;;;;14.27;7.75;;;17.30;45.40;;;;;;5071550;28;20455;-78
2022/03/11 07:59:08;;;;;;;10.52;6.85;;;17.30;45.70;;;;;;5076323;28;20040;-76
2022/03/11 08:01:34;;;;;;;9.93;6.63;;;17.30;45.60;;;;;;5077742;28;20090;-76
2022/03/11 08:03:59;;;;;;;10.63;6.72;;;17.30;45.90;;;;;;5056756;28;20372;-78
2022/03/11 08:06:25;;;;;;;9.50;6.43;;;17.20;45.80;;;;;;5057477;28;20045;-79
2022/03/11 08:08:51;;;;;;;9.43;6.80;;;17.20;46.30;;;;;;5057186;28;20053;-78
2022/03/11 08:11:16;;;;;;;15.93;6.60;;;17.10;46.60;;;;;;5057967;28;20053;-79
2022/03/11 08:13:42;;;;;;;9.45;6.13;;;17.10;46.80;;;;;;5057426;28;20128;-77
2022/03/11 08:16:08;;;;;;;12.05;5.90;;;17.00;47.10;;;;;;5086222;28;20085;-76
2022/03/11 08:18:35;;;;;;;8.95;5.97;;;17.00;47.40;;;;;;5097778;28;20113;-78
2022/03/11 08:21:03;;;;;;;7.78;5.70;;;17.00;47.40;;;;;;5097245;28;20044;-76
2022/03/11 08:23:29;;;;;;;10.48;6.68;;;16.90;47.20;;;;;;5097321;28;20123;-76
2022/03/11 08:25:55;;;;;;;10.55;6.82;;;16.90;47.40;;;;;;5097374;28;20152;-75
2022/03/11 08:28:22;;;;;;;10.95;6.88;;;16.90;47.60;;;;;;5097747;28;20180;-78
2022/03/11 08:30:48;;;;;;;9.45;6.15;;;16.90;47.80;;;;;;5097464;28;20422;-76
2022/03/11 08:33:20;;;;;;;8.43;5.53;;;16.90;47.80;;;;;;5097553;28;20418;-78
2022/03/11 08:35:47;;;;;;;8.32;5.90;;;16.90;47.90;;;;;;5088811;28;20447;-76
2022/03/11 08:38:12;;;;;;;8.13;5.90;;;16.90;47.90;;;;;;5096879;28;20047;-78
2022/03/11 08:40:38;;;;;;;13.40;6.72;;;16.90;47.70;;;;;;5090729;28;20063;-75
2022/03/11 08:43:04;;;;;;;9.00;7.15;;;16.90;47.60;;;;;;5073725;28;20072;-74
2022/03/11 08:45:32;;;;;;;9.63;7.53;;;16.80;47.00;;;;;;5076287;28;20051;-77
2022/03/11 08:47:58;;;;;;;11.40;7.00;;;16.80;46.60;;;;;;5076498;28;20045;-75
2022/03/11 08:50:24;;;;;;;9.25;6.72;;;16.80;46.90;;;;;;5076690;28;20048;-78
2022/03/11 08:52:51;;;;;;;11.32;6.60;;;16.80;47.00;;;;;;5070413;28;20441;-77
2022/03/11 08:55:16;;;;;;;9.40;6.32;;;16.90;47.20;;;;;;5056412;28;20045;-76
2022/03/11 08:57:49;;;;;;;10.88;7.03;;;16.80;47.30;;;;;;5039494;28;20045;-75
2022/03/11 09:00:16;;;;;;;9.25;6.05;;;16.80;47.10;;;;;;5038885;28;20049;-76
2022/03/11 09:02:45;;;;;;;8.32;6.45;;;16.80;47.40;;;;;;5056618;28;20060;-77
2022/03/11 09:05:13;;;;;;;9.25;5.68;;;16.80;47.50;;;;;;5056261;28;20045;-75
2022/03/11 09:07:39;;;;;;;8.98;5.93;;;16.70;47.50;;;;;;5056235;28;20088;-77
2022/03/11 09:10:09;;;;;;;11.18;6.45;;;16.80;47.60;;;;;;5055778;28;20041;-75
2022/03/11 09:12:35;;;;;;;9.90;5.93;;;16.80;47.60;;;;;;5039614;28;20060;-79
2022/03/11 09:15:01;;;;;;;10.00;6.22;;;16.80;47.80;;;;;;5055994;28;20059;-76
2022/03/11 09:17:27;;;;;;;9.23;5.97;;;16.70;47.80;;;;;;5038783;28;20053;-78
2022/03/11 09:19:54;;;;;;;9.43;6.05;;;16.80;48.30;;;;;;5056235;28;20084;-79
2022/03/11 09:22:20;;;;;;;12.23;5.55;;;16.80;48.80;;;;;;5056301;28;20045;-78
2022/03/11 09:24:46;;;;;;;9.43;5.75;;;16.80;50.20;;;;;;5055791;28;20491;-78
2022/03/11 09:27:12;;;;;;;14.55;7.20;;;16.90;50.20;;;;;;5055745;28;20076;-79
2022/03/11 09:29:41;;;;;;;14.38;7.65;;;16.90;48.90;;;;;;5055915;28;20048;-76
2022/03/11 09:32:07;;;;;;;11.38;7.15;;;16.80;47.90;;;;;;5057105;28;20363;-77
2022/03/11 09:34:40;;;;;;;13.07;7.18;;;16.80;47.90;;;;;;5055732;28;20421;-77
2022/03/11 09:37:07;;;;;;;10.45;6.72;;;16.80;47.90;;;;;;5055434;28;20079;-76
2022/03/11 09:39:33;;;;;;;12.65;7.30;;;16.80;47.90;;;;;;5073089;28;20056;-76
2022/03/11 09:42:00;;;;;;;10.00;6.60;;;16.80;47.90;;;;;;5075705;28;20129;-78
2022/03/11 09:44:26;;;;;;;9.70;5.80;;;16.80;48.20;;;;;;5058004;28;20448;-77
2022/03/11 09:46:52;;;;;;;12.55;6.97;;;16.80;48.80;;;;;;5052171;28;20052;-77
2022/03/11 09:49:18;;;;;;;10.98;6.30;;;16.80;48.00;;;;;;5086172;28;20052;-78
2022/03/11 09:51:48;;;;;;;9.85;6.70;;;16.80;47.70;;;;;;5095472;28;20048;-78
2022/03/11 09:54:15;;;;;;;9.85;6.57;;;16.80;47.70;;;;;;5077653;28;20048;-76
2022/03/11 09:56:42;;;;;;;9.95;6.35;;;16.80;47.80;;;;;;5075523;28;20113;-77
2022/03/11 09:59:10;;;;;;;10.38;6.30;;;16.80;47.90;;;;;;5074853;28;20057;-78
2022/03/11 10:01:36;;;;;;;9.45;6.82;;;16.80;48.00;;;;;;5075751;28;20150;-77
2022/03/11 10:04:06;;;;;;;9.77;6.75;;;16.80;48.20;;;;;;5057574;28;20467;-78
2022/03/11 10:06:44;;;;;;;7.93;6.32;;;16.80;48.20;;;;;;5079067;28;20111;-78
2022/03/11 10:09:18;;;;;;;8.48;6.70;;;16.80;48.20;;;;;;5054719;28;20048;-76
2022/03/11 10:11:53;;;;;;;7.75;5.93;;;16.80;48.40;;;;;;5055113;28;20184;-77
2022/03/11 10:14:28;;;;;;;9.77;5.72;;;16.80;48.30;;;;;;5021152;28;20072;-78
2022/03/11 10:16:54;;;;;;;9.43;6.07;;;16.80;48.50;;;;;;5037480;28;20135;-77
2022/03/11 10:19:22;;;;;;;8.65;5.18;;;16.80;48.30;;;;;;5055110;28;20123;-77
2022/03/11 10:21:50;;;;;;;10.40;7.75;;;16.80;48.60;;;;;;5059621;28;20379;-78
2022/03/11 10:24:19;;;;;;;10.15;5.93;;;16.80;47.30;;;;;;5039964;28;20052;-78
2022/03/11 10:26:51;;;;;;;9.15;6.30;;;16.80;48.60;;;;;;5037246;28;20124;-77
2022/03/11 10:29:17;;;;;;;7.13;5.35;;;16.80;48.70;;;;;;5037428;28;20064;-76
2022/03/11 10:31:45;;;;;;;11.48;6.00;;;16.80;48.70;;;;;;5055076;28;20410;-76
2022/03/11 10:34:27;;;;;;;6.88;5.43;;;16.70;48.80;;;;;;5037431;28;20045;-77
2022/03/11 10:37:04;;;;;;;8.48;5.95;;;16.70;49.10;;;;;;5037608;28;20045;-77
2022/03/11 10:39:41;;;;;;;8.00;6.00;;;16.70;49.30;;;;;;5036965;28;20165;-75
2022/03/11 10:42:24;;;;;;;7.00;5.50;;;16.60;49.40;;;;;;5036082;28;20048;-77
2022/03/11 10:45:08;;;;;;;6.68;5.38;;;16.60;49.90;;;;;;5038126;28;20041;-76
2022/03/11 10:47:36;;;;;;;7.88;5.68;;;16.60;49.80;;;;;;5054677;28;20064;-76
2022/03/11 10:50:11;;;;;;;7.18;6.10;;;16.60;50.30;;;;;;5055143;28;20041;-77
2022/03/11 10:52:41;;;;;;;7.03;5.43;;;16.60;50.40;;;;;;5054544;28;20052;-76
2022/03/11 10:55:26;;;;;;;7.78;5.60;;;16.50;50.40;;;;;;5055541;28;20049;-78
2022/03/11 10:58:00;;;;;;;8.18;5.80;;;16.50;50.30;;;;;;5037431;28;20064;-78
2022/03/11 11:00:31;;;;;;;7.28;5.80;;;16.50;50.50;;;;;;5054501;28;20052;-77
2022/03/11 11:02:58;;;;;;;7.10;5.50;;;16.50;50.70;;;;;;5073724;28;20135;-77
2022/03/11 11:05:26;;;;;;;8.73;5.70;;;16.40;50.80;;;;;;5057661;28;20337;-78
2022/03/11 11:07:52;;;;;;;7.18;5.90;;;16.40;50.80;;;;;;5074810;28;20040;-77
2022/03/11 11:10:21;;;;;;;7.25;5.32;;;16.40;50.80;;;;;;5053019;28;20052;-76
2022/03/11 11:12:47;;;;;;;8.10;6.15;;;16.40;50.90;;;;;;5037352;28;20048;-76
2022/03/11 11:15:15;;;;;;;8.02;5.65;;;16.40;51.00;;;;;;5037190;28;20449;-78
2022/03/11 11:17:52;;;;;;;6.50;4.95;;;16.40;51.10;;;;;;5054533;28;20456;-76
2022/03/11 11:20:47;;;;;;;7.75;5.68;;;16.30;51.20;;;;;;5040637;28;20451;-76
2022/03/11 11:23:15;;;;;;;6.68;5.20;;;16.30;51.30;;;;;;5057568;28;20052;-78
2022/03/11 11:25:42;;;;;;;7.40;5.50;;;16.30;51.60;;;;;;5058130;28;20041;-77
2022/03/11 11:28:15;;;;;;;8.60;5.10;;;16.30;51.60;;;;;;5040428;28;20056;-76
2022/03/11 11:30:42;;;;;;;9.40;6.70;;;16.20;51.60;;;;;;5041042;28;20427;-76
2022/03/11 11:33:08;;;;;;;13.45;7.22;;;16.10;49.90;;;;;;5058288;28;20346;-75
2022/03/11 11:35:37;;;;;;;10.50;6.15;;;16.00;50.00;;;;;;5057684;28;20051;-77
2022/03/11 11:38:26;;;;;;;7.68;6.10;;;16.00;51.10;;;;;;5058000;28;20045;-76
2022/03/11 11:40:53;;;;;;;7.03;5.40;;;15.90;51.20;;;;;;5046919;28;20333;-75
2022/03/11 11:43:30;;;;;;;9.75;5.53;;;16.00;51.20;;;;;;5059124;28;20064;-77
2022/03/11 11:46:02;;;;;;;7.78;5.80;;;16.00;51.00;;;;;;5077743;28;20048;-75
2022/03/11 11:48:34;;;;;;;9.57;6.90;;;16.00;50.90;;;;;;5077645;28;20476;-75
2022/03/11 11:51:03;;;;;;;7.37;5.73;;;16.00;50.90;;;;;;5077757;28;20052;-77
2022/03/11 11:53:42;;;;;;;8.07;5.97;;;16.00;50.90;;;;;;5077753;28;20324;-75
2022/03/11 11:56:29;;;;;;;9.27;5.60;;;16.10;50.90;;;;;;5077980;28;20056;-75
2022/03/11 11:58:56;;;;;;;13.40;5.82;;;16.10;50.90;;;;;;5077732;28;20044;-77
2022/03/11 12:01:41;;;;;;;7.68;5.82;;;16.10;50.80;;;;;;5076866;28;20044;-76
2022/03/11 12:04:29;;;;;;;7.57;5.72;;;16.10;50.80;;;;;;5057367;28;20376;-77
2022/03/11 12:06:59;;;;;;;7.10;5.60;;;16.20;50.90;;;;;;5040509;28;20399;-78
2022/03/11 12:12:15;;;;;;;7.13;5.60;;;16.20;50.90;;;;;;5039646;28;20460;-75
2022/03/11 12:17:41;;;;;;;8.63;5.72;;;16.20;51.00;;;;;;5057303;28;20060;-76
2022/03/11 12:20:46;;;;;;;6.03;5.20;;;16.30;50.90;;;;;;5057281;28;20045;-77
2022/03/11 12:23:17;;;;;;;11.75;6.70;;;16.30;50.50;;;;;;5066725;28;20092;-77
2022/03/11 12:26:00;;;;;;;7.53;5.82;;;16.30;50.80;;;;;;5076726;28;20052;-76
2022/03/11 12:28:39;;;;;;;10.57;6.15;;;16.30;50.90;;;;;;5076661;28;20049;-76
2022/03/11 12:31:06;;;;;;;9.98;7.10;;;16.20;50.90;;;;;;5076733;28;20048;-76
2022/03/11 12:33:33;;;;;;;12.38;7.65;;;16.20;49.80;;;;;;5077020;28;20094;-75
2022/03/11 12:36:00;;;;;;;9.35;6.57;;;16.00;47.90;;;;;;5063108;28;20045;-76
2022/03/11 12:38:31;;;;;;;7.60;5.70;;;15.90;49.80;;;;;;5039128;28;20411;-76
2022/03/11 12:41:02;;;;;;;7.93;5.90;;;15.90;50.70;;;;;;5056891;28;20095;-77
2022/03/11 12:43:29;;;;;;;11.85;6.07;;;15.90;50.80;;;;;;5056741;28;20491;-75
2022/03/11 12:45:56;;;;;;;8.50;6.07;;;16.00;50.80;;;;;;5066747;28;20048;-74
2022/03/11 12:48:28;;;;;;;8.52;6.25;;;16.00;50.80;;;;;;5076778;28;20040;-76
2022/03/11 12:50:55;;;;;;;8.27;6.15;;;16.00;50.70;;;;;;5059154;28;20460;-74